Time,TemperatureF,DewpointF,PressureIn,WindDirection,WindDirectionDegrees,WindSpeedMPH,WindSpeedGustMPH,Humidity,HourlyPrecipIn,Conditions,Clouds,dailyrainin,SoftwareType,DateUTC
2013-06-27 05:00:00,66.1,64.9,29.73,ENE,69,0.0,0.0,96,0.00,,---,0.00,VWS V14.01,2013-06-27 09:00:00,
2013-06-27 05:01:00,66.0,64.8,29.73,ENE,69,0.0,0.0,96,0.00,,---,0.00,VWS V14.01,2013-06-27 09:01:00,
2013-06-27 05:06:00,66.1,64.9,29.72,ENE,69,0.0,0.0,96,0.00,,---,0.00,VWS V14.01,2013-06-27 09:06:00,
2013-06-27 05:11:00,66.2,65.0,29.72,ENE,69,0.0,0.0,96,0.00,,---,0.00,VWS V14.01,2013-06-27 09:11:00,
2013-06-27 05:16:00,66.2,65.0,29.72,ENE,69,0.0,0.0,96,0.00,,---,0.00,VWS V14.01,2013-06-27 09:16:00,
2013-06-27 05:21:00,66.2,65.0,29.72,ENE,69,0.0,0.0,96,0.00,,---,0.00,VWS V14.01,2013-06-27 09:21:00,
2013-06-27 05:26:00,66.3,65.1,29.72,ENE,69,0.0,0.0,96,0.00,,---,0.00,VWS V14.01,2013-06-27 09:26:00,
2013-06-27 05:31:00,66.3,65.1,29.72,ENE,69,0.0,0.0,96,0.00,,---,0.00,VWS V14.01,2013-06-27 09:31:00,
2013-06-27 05:36:00,66.4,65.2,29.72,ENE,69,0.0,0.0,96,0.00,,---,0.00,VWS V14.01,2013-06-27 09:36:00,
2013-06-27 05:41:00,66.4,65.2,29.71,ENE,69,0.0,0.0,96,0.01,,---,0.01,VWS V14.01,2013-06-27 09:41:00,
2013-06-27 05:46:00,66.4,65.2,29.71,ENE,69,0.0,0.0,96,0.01,,---,0.01,VWS V14.01,2013-06-27 09:46:00,
2013-06-27 05:51:00,66.5,65.3,29.71,ENE,69,0.0,0.0,96,0.01,,---,0.01,VWS V14.01,2013-06-27 09:51:00,
2013-06-27 05:56:00,66.5,65.3,29.71,ENE,69,0.0,0.0,96,0.01,,---,0.01,VWS V14.01,2013-06-27 09:56:00,
2013-06-27 06:01:00,66.6,65.4,29.72,ENE,69,0.0,0.0,96,0.01,,---,0.01,VWS V14.01,2013-06-27 10:01:00,
2013-06-27 06:06:00,66.7,65.5,29.72,ENE,69,0.0,0.0,96,0.01,,---,0.01,VWS V14.01,2013-06-27 10:06:00,
2013-06-27 06:11:00,66.7,65.5,29.72,ENE,69,0.0,0.0,96,0.01,,---,0.01,VWS V14.01,2013-06-27 10:11:00,
2013-06-27 06:16:00,66.8,65.6,29.72,ENE,69,0.0,0.0,96,0.01,,---,0.01,VWS V14.01,2013-06-27 10:16:00,
2013-06-27 06:21:00,66.8,65.6,29.72,ENE,69,0.0,0.0,96,0.03,,---,0.03,VWS V14.01,2013-06-27 10:21:00,
2013-06-27 06:26:00,66.9,65.7,29.72,ENE,69,0.0,0.0,96,0.06,,---,0.06,VWS V14.01,2013-06-27 10:26:00,
2013-06-27 06:31:00,67.1,66.2,29.72,ENE,69,0.0,0.0,97,0.10,,---,0.10,VWS V14.01,2013-06-27 10:31:00,
2013-06-27 06:36:00,67.2,66.3,29.72,ENE,69,0.0,0.0,97,0.17,,---,0.17,VWS V14.01,2013-06-27 10:36:00,
2013-06-27 06:41:00,67.3,66.4,29.71,ENE,69,0.0,0.0,97,0.21,,---,0.21,VWS V14.01,2013-06-27 10:41:00,
2013-06-27 06:46:00,67.4,66.5,29.71,ENE,69,0.0,0.0,97,0.21,,---,0.22,VWS V14.01,2013-06-27 10:46:00,
2013-06-27 06:51:00,67.4,66.5,29.71,ENE,69,0.0,0.0,97,0.21,,---,0.22,VWS V14.01,2013-06-27 10:51:00,
2013-06-27 06:56:00,67.4,66.5,29.71,ENE,69,0.0,0.0,97,0.21,,---,0.22,VWS V14.01,2013-06-27 10:56:00,
2013-06-27 07:01:00,67.5,66.6,29.71,ENE,69,0.0,0.0,97,0.21,,---,0.22,VWS V14.01,2013-06-27 11:01:00,
2013-06-27 07:06:00,67.6,66.7,29.72,ENE,69,0.0,0.0,97,0.22,,---,0.23,VWS V14.01,2013-06-27 11:06:00,
2013-06-27 07:11:00,67.6,66.7,29.72,ENE,69,0.0,0.0,97,0.22,,---,0.23,VWS V14.01,2013-06-27 11:11:00,
2013-06-27 07:16:00,67.7,66.8,29.72,ENE,69,0.0,0.0,97,0.22,,---,0.23,VWS V14.01,2013-06-27 11:16:00,
2013-06-27 07:21:00,67.7,66.8,29.72,ENE,69,0.0,0.0,97,0.22,,---,0.24,VWS V14.01,2013-06-27 11:21:00,
2013-06-27 07:26:00,67.7,66.8,29.72,ENE,69,0.0,0.0,97,0.20,,---,0.25,VWS V14.01,2013-06-27 11:26:00,
2013-06-27 07:31:00,67.8,66.9,29.72,ENE,69,0.0,0.0,97,0.19,,---,0.26,VWS V14.01,2013-06-27 11:31:00,
2013-06-27 07:36:00,68.0,67.1,29.71,ENE,69,0.0,0.0,97,0.13,,---,0.27,VWS V14.01,2013-06-27 11:36:00,
2013-06-27 07:41:00,68.1,67.2,29.71,ENE,69,0.0,0.0,97,0.08,,---,0.28,VWS V14.01,2013-06-27 11:41:00,
2013-06-27 07:46:00,68.1,67.2,29.72,ENE,69,0.0,0.0,97,0.06,,---,0.28,VWS V14.01,2013-06-27 11:46:00,
2013-06-27 07:51:00,68.2,67.3,29.71,ENE,69,0.0,0.0,97,0.08,,---,0.30,VWS V14.01,2013-06-27 11:51:00,
2013-06-27 07:56:00,68.3,67.4,29.71,ENE,69,0.0,0.0,97,0.09,,---,0.31,VWS V14.01,2013-06-27 11:56:00,
2013-06-27 08:01:00,68.4,67.5,29.71,ENE,69,0.0,0.0,97,0.11,,---,0.33,VWS V14.01,2013-06-27 12:01:00,
2013-06-27 08:06:00,68.4,67.5,29.71,ENE,69,0.0,0.0,97,0.12,,---,0.35,VWS V14.01,2013-06-27 12:06:00,
2013-06-27 08:11:00,68.5,67.6,29.71,ENE,69,0.0,0.0,97,0.14,,---,0.37,VWS V14.01,2013-06-27 12:11:00,
2013-06-27 08:16:00,68.5,67.6,29.71,ENE,69,0.0,0.0,97,0.15,,---,0.38,VWS V14.01,2013-06-27 12:16:00,
2013-06-27 08:21:00,68.6,67.7,29.71,ENE,69,0.0,0.0,97,0.16,,---,0.40,VWS V14.01,2013-06-27 12:21:00,
2013-06-27 08:26:00,68.7,67.8,29.71,ENE,69,0.0,1.0,97,0.18,,---,0.43,VWS V14.01,2013-06-27 12:26:00,
2013-06-27 08:31:00,68.6,67.7,29.70,ESE,107,0.0,1.0,97,0.19,,---,0.45,VWS V14.01,2013-06-27 12:31:00,
2013-06-27 08:36:00,68.7,67.8,29.71,SSE,167,0.0,3.0,97,0.20,,---,0.47,VWS V14.01,2013-06-27 12:36:00,
2013-06-27 08:41:00,68.6,67.7,29.71,SE,138,0.0,1.0,97,0.22,,---,0.49,VWS V14.01,2013-06-27 12:41:00,
2013-06-27 08:46:00,68.6,67.7,29.71,SSE,150,0.0,0.0,97,0.23,,---,0.51,VWS V14.01,2013-06-27 12:46:00,
2013-06-27 08:51:00,68.5,67.6,29.71,SSW,198,0.0,2.0,97,0.25,,---,0.54,VWS V14.01,2013-06-27 12:51:00,
2013-06-27 08:56:00,68.4,67.5,29.71,SSW,198,0.0,0.0,97,0.26,,---,0.57,VWS V14.01,2013-06-27 12:56:00,
2013-06-27 09:01:00,68.4,67.5,29.71,SSW,198,0.0,0.0,97,0.28,,---,0.60,VWS V14.01,2013-06-27 13:01:00,
2013-06-27 09:06:00,68.3,67.4,29.70,SSW,198,0.0,0.0,97,0.29,,---,0.63,VWS V14.01,2013-06-27 13:06:00,
2013-06-27 09:11:00,68.3,67.4,29.70,SSW,198,0.0,1.0,97,0.30,,---,0.65,VWS V14.01,2013-06-27 13:11:00,
2013-06-27 09:16:00,68.3,67.4,29.70,SSW,198,0.0,0.0,97,0.30,,---,0.67,VWS V14.01,2013-06-27 13:16:00,
2013-06-27 09:21:00,68.3,67.4,29.70,SSW,198,0.0,0.0,97,0.28,,---,0.67,VWS V14.01,2013-06-27 13:21:00,
2013-06-27 09:26:00,68.3,67.4,29.70,SSW,198,0.0,1.0,97,0.25,,---,0.67,VWS V14.01,2013-06-27 13:26:00,
2013-06-27 09:31:00,68.4,67.5,29.70,SSW,198,0.0,0.0,97,0.23,,---,0.67,VWS V14.01,2013-06-27 13:31:00,
2013-06-27 09:36:00,68.5,67.9,29.70,SSW,198,0.0,1.0,98,0.22,,---,0.68,VWS V14.01,2013-06-27 13:36:00,
2013-06-27 09:41:00,68.5,67.9,29.70,SSW,197,0.0,0.0,98,0.20,,---,0.68,VWS V14.01,2013-06-27 13:41:00,
2013-06-27 09:46:00,68.6,68.0,29.70,SSW,198,0.0,1.0,98,0.18,,---,0.68,VWS V14.01,2013-06-27 13:46:00,
2013-06-27 09:51:00,68.6,68.0,29.70,SSW,198,0.0,0.0,98,0.15,,---,0.68,VWS V14.01,2013-06-27 13:51:00,
2013-06-27 09:56:00,68.7,68.1,29.70,SSW,198,0.0,1.0,98,0.12,,---,0.68,VWS V14.01,2013-06-27 13:56:00,
2013-06-27 10:01:00,68.7,68.1,29.70,SSE,148,0.0,3.0,98,0.09,,---,0.68,VWS V14.01,2013-06-27 14:01:00,
2013-06-27 10:06:00,68.8,68.2,29.70,SSE,152,0.0,1.0,98,0.06,,---,0.68,VWS V14.01,2013-06-27 14:06:00,
2013-06-27 10:11:00,68.8,68.2,29.70,SSE,152,0.0,0.0,98,0.04,,---,0.68,VWS V14.01,2013-06-27 14:11:00,
2013-06-27 10:16:00,68.9,68.3,29.69,SSE,152,0.0,0.0,98,0.02,,---,0.68,VWS V14.01,2013-06-27 14:16:00,
2013-06-27 10:21:00,69.0,68.4,29.69,South,173,0.0,1.0,98,0.01,,---,0.68,VWS V14.01,2013-06-27 14:21:00,
2013-06-27 10:26:00,69.0,68.4,29.69,South,181,0.0,2.0,98,0.01,,---,0.68,VWS V14.01,2013-06-27 14:26:00,
2013-06-27 10:31:00,69.1,68.5,29.69,South,182,0.0,0.0,98,0.01,,---,0.68,VWS V14.01,2013-06-27 14:31:00,
2013-06-27 10:36:00,69.2,68.6,29.69,South,182,0.0,0.0,98,0.01,,---,0.68,VWS V14.01,2013-06-27 14:36:00,
2013-06-27 10:41:00,69.3,68.7,29.69,South,183,0.0,0.0,98,0.00,,---,0.68,VWS V14.01,2013-06-27 14:41:00,
2013-06-27 10:46:00,69.3,68.7,29.69,NNW,340,0.0,0.0,98,0.00,,---,0.68,VWS V14.01,2013-06-27 14:46:00,
2013-06-27 10:51:00,69.4,68.8,29.69,East,80,0.0,2.0,98,0.00,,---,0.68,VWS V14.01,2013-06-27 14:51:00,
2013-06-27 10:56:00,69.5,68.9,29.70,SSE,159,3.0,4.0,98,0.00,,---,0.68,VWS V14.01,2013-06-27 14:56:00,
2013-06-27 11:01:00,69.5,68.9,29.69,South,185,0.0,0.0,98,0.00,,---,0.68,VWS V14.01,2013-06-27 15:01:00,
2013-06-27 11:06:00,69.8,69.2,29.69,ESE,115,2.0,2.0,98,0.00,,---,0.68,VWS V14.01,2013-06-27 15:06:00,
2013-06-27 11:11:00,70.0,69.4,29.70,SSE,155,0.0,0.0,98,0.00,,---,0.68,VWS V14.01,2013-06-27 15:11:00,
2013-06-27 11:16:00,70.2,69.6,29.70,South,180,0.0,1.0,98,0.00,,---,0.68,VWS V14.01,2013-06-27 15:16:00,
2013-06-27 11:21:00,70.3,69.7,29.70,South,180,0.0,0.0,98,0.00,,---,0.68,VWS V14.01,2013-06-27 15:21:00,
2013-06-27 11:26:00,70.3,69.7,29.70,South,180,0.0,0.0,98,0.00,,---,0.68,VWS V14.01,2013-06-27 15:26:00,
2013-06-27 11:31:00,70.3,69.7,29.69,South,183,0.0,0.0,98,0.00,,---,0.68,VWS V14.01,2013-06-27 15:31:00,
2013-06-27 11:36:00,70.2,69.6,29.70,South,182,0.0,1.0,98,0.00,,---,0.68,VWS V14.01,2013-06-27 15:36:00,
2013-06-27 11:41:00,70.1,69.5,29.69,SW,226,0.0,0.0,98,0.00,,---,0.68,VWS V14.01,2013-06-27 15:41:00,
2013-06-27 11:46:00,70.1,69.5,29.69,SW,223,0.0,0.0,98,0.00,,---,0.68,VWS V14.01,2013-06-27 15:46:00,
2013-06-27 11:51:00,70.2,69.6,29.69,SW,223,0.0,3.0,98,0.00,,---,0.68,VWS V14.01,2013-06-27 15:51:00,
2013-06-27 11:56:00,70.4,69.8,29.69,SSW,213,0.0,1.0,98,0.00,,---,0.68,VWS V14.01,2013-06-27 15:56:00,
2013-06-27 12:01:00,70.5,69.9,29.69,SW,215,0.0,1.0,98,0.00,,---,0.68,VWS V14.01,2013-06-27 16:01:00,
2013-06-27 12:06:00,70.7,70.1,29.69,SW,223,0.0,2.0,98,0.00,,---,0.68,VWS V14.01,2013-06-27 16:06:00,
2013-06-27 12:11:00,71.0,70.4,29.69,West,273,1.0,5.0,98,0.00,,---,0.68,VWS V14.01,2013-06-27 16:11:00,
2013-06-27 12:16:00,71.1,70.5,29.68,ENE,69,0.0,3.0,98,0.00,,---,0.68,VWS V14.01,2013-06-27 16:16:00,
2013-06-27 12:21:00,71.1,70.5,29.68,SSW,212,0.0,0.0,98,0.00,,---,0.68,VWS V14.01,2013-06-27 16:21:00,
2013-06-27 12:26:00,71.1,70.5,29.68,SSW,213,0.0,1.0,98,0.00,,---,0.68,VWS V14.01,2013-06-27 16:26:00,
2013-06-27 12:31:00,71.0,70.4,29.67,ESE,113,0.0,4.0,98,0.00,,---,0.68,VWS V14.01,2013-06-27 16:31:00,
2013-06-27 12:36:00,71.2,70.6,29.68,NNW,342,0.0,2.0,98,0.00,,---,0.68,VWS V14.01,2013-06-27 16:36:00,
2013-06-27 12:42:00,71.4,70.8,29.67,WSW,257,0.0,3.0,98,0.00,,---,0.68,VWS V14.01,2013-06-27 16:42:00,
2013-06-27 12:47:00,71.2,70.6,29.68,SSE,163,1.0,5.0,98,0.00,,---,0.68,VWS V14.01,2013-06-27 16:47:00,
2013-06-27 12:52:00,71.1,70.5,29.67,NE,36,0.0,3.0,98,0.00,,---,0.68,VWS V14.01,2013-06-27 16:52:00,
2013-06-27 12:57:00,71.1,70.5,29.68,SE,138,0.0,0.0,98,0.00,,---,0.68,VWS V14.01,2013-06-27 16:57:00,
2013-06-27 13:02:00,71.2,70.6,29.67,SSE,160,0.0,2.0,98,0.00,,---,0.68,VWS V14.01,2013-06-27 17:02:00,
2013-06-27 13:07:00,71.4,70.8,29.67,East,94,0.0,4.0,98,0.00,,---,0.68,VWS V14.01,2013-06-27 17:07:00,
2013-06-27 13:12:00,71.6,71.0,29.67,West,270,0.0,2.0,98,0.00,,---,0.68,VWS V14.01,2013-06-27 17:12:00,
2013-06-27 13:17:00,71.9,71.3,29.67,WNW,284,1.0,4.0,98,0.00,,---,0.68,VWS V14.01,2013-06-27 17:17:00,
2013-06-27 13:22:00,72.1,71.5,29.67,SSE,153,1.0,1.0,98,0.00,,---,0.68,VWS V14.01,2013-06-27 17:22:00,
2013-06-27 13:27:00,72.3,71.7,29.67,NE,49,0.0,1.0,98,0.00,,---,0.68,VWS V14.01,2013-06-27 17:27:00,
2013-06-27 13:32:00,72.1,71.2,29.67,South,183,0.0,6.0,97,0.00,,---,0.68,VWS V14.01,2013-06-27 17:32:00,
2013-06-27 13:37:00,72.1,71.2,29.67,ENE,63,0.0,3.0,97,0.00,,---,0.68,VWS V14.01,2013-06-27 17:37:00,
2013-06-27 13:42:00,72.1,71.2,29.67,SE,140,0.0,1.0,97,0.00,,---,0.68,VWS V14.01,2013-06-27 17:42:00,
2013-06-27 13:47:00,72.3,71.4,29.67,WSW,244,0.0,2.0,97,0.00,,---,0.68,VWS V14.01,2013-06-27 17:47:00,
2013-06-27 13:52:00,72.4,71.5,29.66,SSE,150,0.0,5.0,97,0.00,,---,0.68,VWS V14.01,2013-06-27 17:52:00,
2013-06-27 13:57:00,72.6,71.7,29.66,ENE,69,0.0,2.0,97,0.00,,---,0.68,VWS V14.01,2013-06-27 17:57:00,
2013-06-27 14:02:00,72.8,71.9,29.66,SE,144,1.0,3.0,97,0.00,,---,0.68,VWS V14.01,2013-06-27 18:02:00,
2013-06-27 14:07:00,73.1,72.2,29.66,SW,226,2.0,4.0,97,0.00,,---,0.68,VWS V14.01,2013-06-27 18:07:00,
2013-06-27 14:12:00,73.7,72.8,29.66,SSE,148,0.0,4.0,97,0.00,,---,0.68,VWS V14.01,2013-06-27 18:12:00,
2013-06-27 14:17:00,73.9,72.7,29.66,SSE,165,2.0,10.0,96,0.00,,---,0.68,VWS V14.01,2013-06-27 18:17:00,
2013-06-27 14:22:00,74.0,72.8,29.65,NNW,342,1.0,3.0,96,0.00,,---,0.68,VWS V14.01,2013-06-27 18:22:00,
2013-06-27 14:27:00,74.6,73.4,29.65,West,267,1.0,3.0,96,0.00,,---,0.68,VWS V14.01,2013-06-27 18:27:00,
2013-06-27 14:32:00,75.4,74.2,29.65,NNW,328,0.0,4.0,96,0.00,,---,0.68,VWS V14.01,2013-06-27 18:32:00,
2013-06-27 14:37:00,75.5,73.7,29.65,SSW,207,2.0,4.0,94,0.00,,---,0.68,VWS V14.01,2013-06-27 18:37:00,
2013-06-27 14:42:00,75.7,73.5,29.65,SW,215,2.0,4.0,93,0.00,,---,0.68,VWS V14.01,2013-06-27 18:42:00,
2013-06-27 14:47:00,76.1,73.3,29.65,South,178,2.0,9.0,91,0.00,,---,0.68,VWS V14.01,2013-06-27 18:47:00,
2013-06-27 14:52:00,76.4,73.6,29.64,SSE,147,2.0,5.0,91,0.00,,---,0.68,VWS V14.01,2013-06-27 18:52:00,
2013-06-27 14:57:00,76.9,73.8,29.65,SSE,157,4.0,7.0,90,0.00,,---,0.68,VWS V14.01,2013-06-27 18:57:00,
2013-06-27 15:02:00,77.1,73.3,29.65,WSW,248,0.0,7.0,88,0.00,,---,0.68,VWS V14.01,2013-06-27 19:02:00,
2013-06-27 15:07:00,77.6,74.1,29.65,SE,141,1.0,3.0,89,0.00,,---,0.68,VWS V14.01,2013-06-27 19:07:00,
2013-06-27 15:12:00,77.8,72.9,29.65,South,191,2.0,6.0,85,0.00,,---,0.68,VWS V14.01,2013-06-27 19:12:00,
2013-06-27 15:17:00,78.0,73.1,29.65,SSW,202,0.0,6.0,85,0.00,,---,0.68,VWS V14.01,2013-06-27 19:17:00,
2013-06-27 15:22:00,77.7,72.1,29.65,SSE,162,7.0,8.0,83,0.00,,---,0.68,VWS V14.01,2013-06-27 19:22:00,
2013-06-27 15:27:00,77.5,71.9,29.65,East,96,0.0,5.0,83,0.00,,---,0.68,VWS V14.01,2013-06-27 19:27:00,
2013-06-27 15:32:00,77.3,71.7,29.65,SSW,194,2.0,9.0,83,0.00,,---,0.68,VWS V14.01,2013-06-27 19:32:00,
2013-06-27 15:37:00,77.4,72.2,29.65,SE,140,0.0,9.0,84,0.00,,---,0.68,VWS V14.01,2013-06-27 19:37:00,
2013-06-27 15:42:00,77.3,71.7,29.64,SSE,156,4.0,9.0,83,0.00,,---,0.68,VWS V14.01,2013-06-27 19:42:00,
2013-06-27 15:47:00,76.9,71.0,29.64,SSE,159,0.0,8.0,82,0.00,,---,0.68,VWS V14.01,2013-06-27 19:47:00,
2013-06-27 15:52:00,76.5,71.0,29.65,SW,236,0.0,4.0,83,0.00,,---,0.68,VWS V14.01,2013-06-27 19:52:00,
2013-06-27 15:57:00,76.1,70.9,29.65,SSE,157,3.0,7.0,84,0.00,,---,0.68,VWS V14.01,2013-06-27 19:57:00,
2013-06-27 16:02:00,75.8,70.6,29.64,NE,53,0.0,4.0,84,0.00,,---,0.68,VWS V14.01,2013-06-27 20:02:00,
2013-06-27 16:07:00,75.4,70.6,29.64,West,273,0.0,4.0,85,0.01,,---,0.69,VWS V14.01,2013-06-27 20:07:00,
2013-06-27 16:12:00,75.2,70.7,29.64,WNW,300,0.0,3.0,86,0.02,,---,0.70,VWS V14.01,2013-06-27 20:12:00,
2013-06-27 16:17:00,75.0,70.9,29.64,WSW,237,0.0,2.0,87,0.05,,---,0.73,VWS V14.01,2013-06-27 20:17:00,
2013-06-27 16:22:00,74.7,70.9,29.64,West,270,1.0,1.0,88,0.05,,---,0.73,VWS V14.01,2013-06-27 20:22:00,
2013-06-27 16:27:00,74.3,70.5,29.64,South,182,0.0,6.0,88,0.07,,---,0.75,VWS V14.01,2013-06-27 20:27:00,
2013-06-27 16:32:00,73.7,69.9,29.64,SSE,155,2.0,2.0,88,0.08,,---,0.76,VWS V14.01,2013-06-27 20:32:00,
2013-06-27 16:37:00,73.2,69.4,29.64,South,170,0.0,1.0,88,0.08,,---,0.76,VWS V14.01,2013-06-27 20:37:00,
2013-06-27 16:42:00,72.9,69.5,29.64,South,183,0.0,0.0,89,0.08,,---,0.76,VWS V14.01,2013-06-27 20:42:00,
2013-06-27 16:47:00,72.8,69.7,29.64,SSE,161,0.0,1.0,90,0.09,,---,0.77,VWS V14.01,2013-06-27 20:47:00,
2013-06-27 16:52:00,72.6,69.5,29.63,South,169,0.0,1.0,90,0.09,,---,0.77,VWS V14.01,2013-06-27 20:52:00,
2013-06-27 16:57:00,72.6,69.8,29.63,South,173,0.0,2.0,91,0.09,,---,0.77,VWS V14.01,2013-06-27 20:57:00,
2013-06-27 17:02:00,72.6,70.2,29.63,East,96,0.0,3.0,92,0.09,,---,0.77,VWS V14.01,2013-06-27 21:02:00,
2013-06-27 17:08:00,72.6,70.2,29.63,North,9,0.0,2.0,92,0.09,,---,0.77,VWS V14.01,2013-06-27 21:08:00,
2013-06-27 17:13:00,72.6,70.5,29.63,SSW,209,0.0,3.0,93,0.08,,---,0.77,VWS V14.01,2013-06-27 21:13:00,
2013-06-27 17:18:00,72.6,70.5,29.63,SSW,209,0.0,0.0,93,0.06,,---,0.77,VWS V14.01,2013-06-27 21:18:00,
2013-06-27 17:23:00,72.6,70.5,29.63,WNW,299,0.0,5.0,93,0.04,,---,0.77,VWS V14.01,2013-06-27 21:23:00,
2013-06-27 17:28:00,72.6,70.5,29.63,West,279,3.0,5.0,93,0.03,,---,0.77,VWS V14.01,2013-06-27 21:28:00,
2013-06-27 17:33:00,72.5,70.7,29.63,SSW,193,0.0,10.0,94,0.01,,---,0.77,VWS V14.01,2013-06-27 21:33:00,
2013-06-27 17:39:00,72.5,70.7,29.63,South,186,0.0,0.0,94,0.01,,---,0.77,VWS V14.01,2013-06-27 21:39:00,
2013-06-27 17:44:00,72.3,70.5,29.63,SE,142,0.0,6.0,94,0.01,,---,0.77,VWS V14.01,2013-06-27 21:44:00,
2013-06-27 17:49:00,72.0,69.9,29.63,SSE,153,0.0,1.0,93,0.00,,---,0.77,VWS V14.01,2013-06-27 21:49:00,
2013-06-27 17:54:00,71.9,70.1,29.62,SSE,163,0.0,0.0,94,0.00,,---,0.77,VWS V14.01,2013-06-27 21:54:00,
2013-06-27 18:00:00,71.7,69.9,29.62,South,178,1.0,3.0,94,0.00,,---,0.77,VWS V14.01,2013-06-27 22:00:00,
2013-06-27 18:05:00,71.7,69.9,29.62,SSE,167,0.0,0.0,94,0.00,,---,0.77,VWS V14.01,2013-06-27 22:05:00,
2013-06-27 18:10:00,71.9,70.1,29.62,SW,221,0.0,1.0,94,0.00,,---,0.77,VWS V14.01,2013-06-27 22:10:00,
2013-06-27 18:15:00,72.0,70.5,29.62,SE,133,0.0,2.0,95,0.00,,---,0.77,VWS V14.01,2013-06-27 22:15:00,
2013-06-27 18:20:00,72.1,70.6,29.62,SE,144,0.0,1.0,95,0.00,,---,0.77,VWS V14.01,2013-06-27 22:20:00,
2013-06-27 18:25:00,72.2,70.7,29.61,SSE,163,0.0,2.0,95,0.00,,---,0.77,VWS V14.01,2013-06-27 22:25:00,
2013-06-27 18:30:00,72.4,70.9,29.62,NNW,327,1.0,3.0,95,0.00,,---,0.77,VWS V14.01,2013-06-27 22:30:00,
2013-06-27 18:35:00,72.6,71.4,29.62,South,175,0.0,5.0,96,0.00,,---,0.77,VWS V14.01,2013-06-27 22:35:00,
2013-06-27 18:40:00,72.7,71.5,29.62,SSE,160,0.0,2.0,96,0.00,,---,0.77,VWS V14.01,2013-06-27 22:40:00,
2013-06-27 18:46:00,72.8,71.6,29.62,SE,125,0.0,1.0,96,0.00,,---,0.77,VWS V14.01,2013-06-27 22:46:00,
2013-06-27 18:51:00,72.9,71.4,29.62,South,171,5.0,5.0,95,0.00,,---,0.77,VWS V14.01,2013-06-27 22:51:00,
2013-06-27 18:56:00,72.7,71.2,29.62,South,177,0.0,5.0,95,0.00,,---,0.77,VWS V14.01,2013-06-27 22:56:00,
2013-06-27 19:01:00,72.6,71.1,29.61,WSW,237,0.0,3.0,95,0.00,,---,0.77,VWS V14.01,2013-06-27 23:01:00,
2013-06-27 19:06:00,72.6,71.1,29.61,SSE,163,0.0,3.0,95,0.00,,---,0.77,VWS V14.01,2013-06-27 23:06:00,
2013-06-27 19:11:00,72.6,71.1,29.61,ESE,114,0.0,0.0,95,0.00,,---,0.77,VWS V14.01,2013-06-27 23:11:00,
2013-06-27 19:16:00,72.6,71.1,29.61,SSE,159,0.0,0.0,95,0.00,,---,0.77,VWS V14.01,2013-06-27 23:16:00,
2013-06-27 19:21:00,72.6,71.1,29.62,SSE,149,0.0,1.0,95,0.00,,---,0.77,VWS V14.01,2013-06-27 23:21:00,
2013-06-27 19:26:00,72.5,71.0,29.62,WNW,296,0.0,0.0,95,0.00,,---,0.77,VWS V14.01,2013-06-27 23:26:00,
2013-06-27 19:31:00,72.5,71.0,29.62,WSW,238,0.0,1.0,95,0.00,,---,0.77,VWS V14.01,2013-06-27 23:31:00,
2013-06-27 19:36:00,72.4,70.9,29.62,South,184,0.0,0.0,95,0.00,,---,0.77,VWS V14.01,2013-06-27 23:36:00,
2013-06-27 19:41:00,72.5,71.0,29.62,SW,219,0.0,2.0,95,0.00,,---,0.77,VWS V14.01,2013-06-27 23:41:00,
2013-06-27 19:47:00,72.5,71.0,29.62,SSE,155,0.0,1.0,95,0.00,,---,0.77,VWS V14.01,2013-06-27 23:47:00,
2013-06-27 19:52:00,72.5,71.0,29.63,NW,315,1.0,1.0,95,0.00,,---,0.77,VWS V14.01,2013-06-27 23:52:00,
2013-06-27 19:57:00,72.5,71.0,29.62,WNW,302,0.0,0.0,95,0.00,,---,0.77,VWS V14.01,2013-06-27 23:57:00,
2013-06-27 20:02:00,72.5,71.0,29.63,WNW,302,0.0,0.0,95,0.00,,---,0.77,VWS V14.01,2013-06-28 00:02:00,
2013-06-27 20:07:00,72.4,70.9,29.63,West,269,2.0,4.0,95,0.00,,---,0.77,VWS V14.01,2013-06-28 00:07:00,
2013-06-27 20:12:00,72.4,70.9,29.63,South,182,0.0,2.0,95,0.00,,---,0.77,VWS V14.01,2013-06-28 00:12:00,
2013-06-27 20:17:00,72.4,70.9,29.63,South,182,0.0,1.0,95,0.00,,---,0.77,VWS V14.01,2013-06-28 00:17:00,
2013-06-27 20:22:00,72.2,70.7,29.63,SSW,207,0.0,5.0,95,0.00,,---,0.77,VWS V14.01,2013-06-28 00:22:00,
2013-06-27 20:27:00,72.1,70.6,29.62,NNW,340,0.0,1.0,95,0.00,,---,0.77,VWS V14.01,2013-06-28 00:27:00,
2013-06-27 20:32:00,71.9,70.4,29.63,West,269,0.0,4.0,95,0.00,,---,0.77,VWS V14.01,2013-06-28 00:32:00,
2013-06-27 20:38:00,71.8,70.3,29.62,West,268,0.0,1.0,95,0.00,,---,0.77,VWS V14.01,2013-06-28 00:38:00,
2013-06-27 20:43:00,71.7,70.2,29.62,West,281,0.0,2.0,95,0.00,,---,0.77,VWS V14.01,2013-06-28 00:43:00,
2013-06-27 20:48:00,71.6,70.1,29.63,SW,230,0.0,3.0,95,0.00,,---,0.77,VWS V14.01,2013-06-28 00:48:00,
2013-06-27 20:53:00,71.5,70.0,29.63,SW,230,0.0,2.0,95,0.00,,---,0.77,VWS V14.01,2013-06-28 00:53:00,
2013-06-27 20:58:00,71.4,69.9,29.62,West,263,0.0,3.0,95,0.00,,---,0.77,VWS V14.01,2013-06-28 00:58:00,
2013-06-27 21:03:00,71.3,69.8,29.62,SE,146,0.0,3.0,95,0.00,,---,0.77,VWS V14.01,2013-06-28 01:03:00,
2013-06-27 21:08:00,71.2,69.7,29.62,East,92,0.0,1.0,95,0.00,,---,0.77,VWS V14.01,2013-06-28 01:08:00,
2013-06-27 21:13:00,71.2,69.7,29.63,WNW,298,0.0,3.0,95,0.00,,---,0.77,VWS V14.01,2013-06-28 01:13:00,
2013-06-27 21:18:00,71.2,69.7,29.63,West,276,0.0,3.0,95,0.00,,---,0.77,VWS V14.01,2013-06-28 01:18:00,
2013-06-27 21:23:00,71.1,69.6,29.63,West,276,0.0,0.0,95,0.00,,---,0.77,VWS V14.01,2013-06-28 01:23:00,
2013-06-27 21:28:00,71.0,69.5,29.63,West,276,0.0,0.0,95,0.00,,---,0.77,VWS V14.01,2013-06-28 01:28:00,
2013-06-27 21:34:00,70.9,69.4,29.63,West,276,0.0,0.0,95,0.00,,---,0.77,VWS V14.01,2013-06-28 01:34:00,
2013-06-27 21:39:00,70.8,69.3,29.63,West,276,0.0,0.0,95,0.00,,---,0.77,VWS V14.01,2013-06-28 01:39:00,
2013-06-27 21:44:00,70.7,69.2,29.64,West,276,0.0,0.0,95,0.00,,---,0.77,VWS V14.01,2013-06-28 01:44:00,
2013-06-27 21:49:00,70.6,69.1,29.64,West,276,0.0,0.0,95,0.00,,---,0.77,VWS V14.01,2013-06-28 01:49:00,
2013-06-27 21:54:00,70.4,68.9,29.64,West,276,0.0,0.0,95,0.00,,---,0.77,VWS V14.01,2013-06-28 01:54:00,
2013-06-27 21:59:00,70.2,68.7,29.64,West,276,0.0,0.0,95,0.00,,---,0.77,VWS V14.01,2013-06-28 01:59:00,
2013-06-27 22:04:00,70.1,68.6,29.64,West,274,0.0,0.0,95,0.00,,---,0.77,VWS V14.01,2013-06-28 02:04:00,
2013-06-27 22:09:00,69.9,68.4,29.64,West,274,0.0,0.0,95,0.00,,---,0.77,VWS V14.01,2013-06-28 02:09:00,
2013-06-27 22:14:00,69.7,68.2,29.64,West,274,0.0,0.0,95,0.00,,---,0.77,VWS V14.01,2013-06-28 02:14:00,
2013-06-27 22:19:00,69.6,68.1,29.64,West,274,0.0,0.0,95,0.00,,---,0.77,VWS V14.01,2013-06-28 02:19:00,
2013-06-27 22:24:00,69.5,68.0,29.64,West,274,0.0,0.0,95,0.00,,---,0.77,VWS V14.01,2013-06-28 02:24:00,
2013-06-27 22:29:00,69.4,67.9,29.64,West,274,0.0,0.0,95,0.00,,---,0.77,VWS V14.01,2013-06-28 02:29:00,
2013-06-27 22:34:00,69.3,67.8,29.64,West,274,0.0,0.0,95,0.00,,---,0.77,VWS V14.01,2013-06-28 02:34:00,
2013-06-27 22:39:00,69.3,67.8,29.64,West,274,0.0,0.0,95,0.00,,---,0.77,VWS V14.01,2013-06-28 02:39:00,
2013-06-27 22:45:00,69.2,67.7,29.64,West,274,0.0,0.0,95,0.00,,---,0.77,VWS V14.01,2013-06-28 02:45:00,
2013-06-27 22:50:00,69.1,67.6,29.64,West,274,0.0,0.0,95,0.00,,---,0.77,VWS V14.01,2013-06-28 02:50:00,
2013-06-27 22:55:00,69.0,67.5,29.64,West,274,0.0,0.0,95,0.00,,---,0.77,VWS V14.01,2013-06-28 02:55:00,
2013-06-27 23:00:00,68.8,67.3,29.64,West,274,0.0,0.0,95,0.00,,---,0.77,VWS V14.01,2013-06-28 03:00:00,
2013-06-27 23:05:00,68.7,67.2,29.64,West,274,0.0,0.0,95,0.00,,---,0.77,VWS V14.01,2013-06-28 03:05:00,
2013-06-27 23:10:00,68.6,67.1,29.64,West,274,0.0,0.0,95,0.00,,---,0.77,VWS V14.01,2013-06-28 03:10:00,
2013-06-27 23:16:00,68.4,66.9,29.63,West,274,0.0,0.0,95,0.00,,---,0.77,VWS V14.01,2013-06-28 03:16:00,
2013-06-27 23:21:00,68.2,66.7,29.64,West,274,0.0,0.0,95,0.00,,---,0.77,VWS V14.01,2013-06-28 03:21:00,
2013-06-27 23:26:00,68.1,66.6,29.64,West,274,0.0,0.0,95,0.00,,---,0.77,VWS V14.01,2013-06-28 03:26:00,
2013-06-27 23:31:00,68.0,66.5,29.64,West,274,0.0,0.0,95,0.00,,---,0.77,VWS V14.01,2013-06-28 03:31:00,
2013-06-27 23:36:00,67.9,66.4,29.64,West,274,0.0,0.0,95,0.00,,---,0.77,VWS V14.01,2013-06-28 03:36:00,
2013-06-27 23:41:00,67.8,66.3,29.63,West,274,0.0,0.0,95,0.00,,---,0.77,VWS V14.01,2013-06-28 03:41:00,
2013-06-27 23:46:00,67.7,66.2,29.63,West,274,0.0,0.0,95,0.00,,---,0.77,VWS V14.01,2013-06-28 03:46:00,
2013-06-27 23:51:00,67.6,66.1,29.63,West,274,0.0,0.0,95,0.00,,---,0.77,VWS V14.01,2013-06-28 03:51:00,
2013-06-27 23:56:00,67.5,66.3,29.62,West,274,0.0,0.0,96,0.00,,---,0.77,VWS V14.01,2013-06-28 03:56:00,